Trail, Minnesota
Current Conditions -  °F | °C
As of 10:15 AM on Thursday 29 Jan 2015 (Local Time) from KFSE Reporting Station
Haze Haze  
Wind Chill: -10°   Ceiling: 1600
Heat Index:   Visibility: 3mi
Dew Point:   Wind: 17mph
Humidity: 79%   Direction: 320°NW
Pressure: 30.39"   Gusts: 23mph
Location:  47.78°N, 95.69°W
Report Text: KFSE 291615Z AUTO 32015G20KT 3SM HZ OVC016 M13/M16 A3039 RMK AO2
Loading
Personal Weather Stations






























Interactive Weather Map New forecast layout! Learn more

10-Day Weather Forecast

Advertisements
Track Severe Weather on mobile